sensor_id;sensor_type;location;lat;lon;timestamp;pressure;altitude;pressure_sealevel;temperature
68342;BMP280;55668;52.310;21.066;2022-09-06T00:12:08;101890.0;;;10.6
68342;BMP280;55668;52.310;21.066;2022-09-06T00:28:46;101900.0;;;10.4
68342;BMP280;55668;52.310;21.066;2022-09-06T00:43:18;101900.0;;;10.0
68342;BMP280;55668;52.310;21.066;2022-09-06T00:59:14;101890.0;;;9.7
68342;BMP280;55668;52.310;21.066;2022-09-06T01:13:39;101890.0;;;9.5
68342;BMP280;55668;52.310;21.066;2022-09-06T01:28:54;101880.0;;;9.2
68342;BMP280;55668;52.310;21.066;2022-09-06T01:45:41;101880.0;;;8.8
68342;BMP280;55668;52.310;21.066;2022-09-06T02:00:00;101890.0;;;8.6
68342;BMP280;55668;52.310;21.066;2022-09-06T02:15:56;101890.0;;;8.5
68342;BMP280;55668;52.310;21.066;2022-09-06T02:33:03;101880.0;;;8.3
68342;BMP280;55668;52.310;21.066;2022-09-06T03:03:59;101880.0;;;8.4
68342;BMP280;55668;52.310;21.066;2022-09-06T03:17:03;101880.0;;;8.5
68342;BMP280;55668;52.310;21.066;2022-09-06T03:32:00;101880.0;;;8.7
68342;BMP280;55668;52.310;21.066;2022-09-06T03:48:59;101880.0;;;8.8
68342;BMP280;55668;52.310;21.066;2022-09-06T04:17:46;101880.0;;;8.9
68342;BMP280;55668;52.310;21.066;2022-09-06T04:54:59;101870.0;;;9.0
68342;BMP280;55668;52.310;21.066;2022-09-06T05:06:06;101870.0;;;9.3
68342;BMP280;55668;52.310;21.066;2022-09-06T05:20:04;101870.0;;;9.6
68342;BMP280;55668;52.310;21.066;2022-09-06T05:38:54;101870.0;;;10.1
68342;BMP280;55668;52.310;21.066;2022-09-06T05:49:56;101870.0;;;11.4
68342;BMP280;55668;52.310;21.066;2022-09-06T06:06:25;101870.0;;;13.2
68342;BMP280;55668;52.310;21.066;2022-09-06T06:40:45;101860.0;;;15.3
68342;BMP280;55668;52.310;21.066;2022-09-06T06:52:20;101870.0;;;16.1
68342;BMP280;55668;52.310;21.066;2022-09-06T07:05:39;101880.0;;;19.6
68342;BMP280;55668;52.310;21.066;2022-09-06T07:10:05;101880.0;;;20.6
68342;BMP280;55668;52.310;21.066;2022-09-06T07:25:24;101880.0;;;19.5
68342;BMP280;55668;52.310;21.066;2022-09-06T07:37:31;101880.0;;;18.8
68342;BMP280;55668;52.310;21.066;2022-09-06T07:52:55;101870.0;;;18.6
68342;BMP280;55668;52.310;21.066;2022-09-06T08:08:24;101870.0;;;19.0
68342;BMP280;55668;52.310;21.066;2022-09-06T08:24:13;101860.0;;;19.7
68342;BMP280;55668;52.310;21.066;2022-09-06T08:39:07;101860.0;;;19.9
68342;BMP280;55668;52.310;21.066;2022-09-06T09:10:18;101820.0;;;19.8
68342;BMP280;55668;52.310;21.066;2022-09-06T09:42:04;101800.0;;;19.9
68342;BMP280;55668;52.310;21.066;2022-09-06T09:56:57;101780.0;;;19.8
68342;BMP280;55668;52.310;21.066;2022-09-06T10:11:38;101760.0;;;19.9
68342;BMP280;55668;52.310;21.066;2022-09-06T10:26:40;101750.0;;;19.8
68342;BMP280;55668;52.310;21.066;2022-09-06T10:42:38;101740.0;;;19.9
68342;BMP280;55668;52.310;21.066;2022-09-06T10:57:35;101730.0;;;20.2
68342;BMP280;55668;52.310;21.066;2022-09-06T11:12:47;101710.0;;;20.4
68342;BMP280;55668;52.310;21.066;2022-09-06T11:28:28;101700.0;;;20.5
68342;BMP280;55668;52.310;21.066;2022-09-06T12:02:27;101660.0;;;20.5
68342;BMP280;55668;52.310;21.066;2022-09-06T12:14:59;101650.0;;;20.6
68342;BMP280;55668;52.310;21.066;2022-09-06T12:45:33;101610.0;;;20.7
68342;BMP280;55668;52.310;21.066;2022-09-06T13:00:49;101610.0;;;20.8
68342;BMP280;55668;52.310;21.066;2022-09-06T13:17:05;101590.0;;;20.6
68342;BMP280;55668;52.310;21.066;2022-09-06T13:31:24;101590.0;;;20.5
68342;BMP280;55668;52.310;21.066;2022-09-06T13:48:00;101600.0;;;20.4
68342;BMP280;55668;52.310;21.066;2022-09-06T14:01:49;101580.0;;;20.5
68342;BMP280;55668;52.310;21.066;2022-09-06T14:17:11;101560.0;;;20.8
68342;BMP280;55668;52.310;21.066;2022-09-06T14:32:49;101560.0;;;20.3
68342;BMP280;55668;52.310;21.066;2022-09-06T14:48:13;101550.0;;;20.1
68342;BMP280;55668;52.310;21.066;2022-09-06T15:08:06;101530.0;;;19.9
68342;BMP280;55668;52.310;21.066;2022-09-06T15:18:53;101520.0;;;19.7
68342;BMP280;55668;52.310;21.066;2022-09-06T15:34:39;101500.0;;;19.4
68342;BMP280;55668;52.310;21.066;2022-09-06T15:49:15;101500.0;;;19.2
68342;BMP280;55668;52.310;21.066;2022-09-06T16:04:38;101480.0;;;19.0
68342;BMP280;55668;52.310;21.066;2022-09-06T16:19:55;101480.0;;;18.7
68342;BMP280;55668;52.310;21.066;2022-09-06T16:36:13;101460.0;;;18.3
68342;BMP280;55668;52.310;21.066;2022-09-06T16:50:49;101470.0;;;17.9
68342;BMP280;55668;52.310;21.066;2022-09-06T17:06:17;101470.0;;;17.5
68342;BMP280;55668;52.310;21.066;2022-09-06T17:21:27;101470.0;;;16.8
68342;BMP280;55668;52.310;21.066;2022-09-06T17:36:50;101470.0;;;16.3
68342;BMP280;55668;52.310;21.066;2022-09-06T17:53:42;101490.0;;;15.7
68342;BMP280;55668;52.310;21.066;2022-09-06T18:07:41;101500.0;;;15.2
68342;BMP280;55668;52.310;21.066;2022-09-06T18:24:52;101500.0;;;14.9
68342;BMP280;55668;52.310;21.066;2022-09-06T18:39:19;101510.0;;;14.4
68342;BMP280;55668;52.310;21.066;2022-09-06T18:55:38;101510.0;;;14.0
68342;BMP280;55668;52.310;21.066;2022-09-06T19:09:09;101510.0;;;13.5
68342;BMP280;55668;52.310;21.066;2022-09-06T19:26:31;101500.0;;;13.3
68342;BMP280;55668;52.310;21.066;2022-09-06T19:40:23;101500.0;;;12.9
68342;BMP280;55668;52.310;21.066;2022-09-06T19:55:15;101500.0;;;12.5
68342;BMP280;55668;52.310;21.066;2022-09-06T20:10:30;101500.0;;;12.0
68342;BMP280;55668;52.310;21.066;2022-09-06T20:27:11;101480.0;;;11.8
68342;BMP280;55668;52.310;21.066;2022-09-06T20:57:40;101490.0;;;11.7
68342;BMP280;55668;52.310;21.066;2022-09-06T21:12:50;101470.0;;;11.6
68342;BMP280;55668;52.310;21.066;2022-09-06T21:29:25;101470.0;;;11.4
68342;BMP280;55668;52.310;21.066;2022-09-06T21:45:35;101470.0;;;11.3
68342;BMP280;55668;52.310;21.066;2022-09-06T21:59:39;101470.0;;;11.0
68342;BMP280;55668;52.310;21.066;2022-09-06T22:17:09;101470.0;;;10.8
68342;BMP280;55668;52.310;21.066;2022-09-06T22:30:22;101460.0;;;10.6
68342;BMP280;55668;52.310;21.066;2022-09-06T22:44:43;101470.0;;;10.4
68342;BMP280;55668;52.310;21.066;2022-09-06T23:00:16;101470.0;;;10.1
68342;BMP280;55668;52.310;21.066;2022-09-06T23:14:46;101460.0;;;10.0
68342;BMP280;55668;52.310;21.066;2022-09-06T23:30:22;101460.0;;;9.8
68342;BMP280;55668;52.310;21.066;2022-09-06T23:45:55;101450.0;;;9.5
